Time;durP1;ratioP1;P1;durP2;ratioP2;P2;SDS_P1;SDS_P2;PMS_P1;PMS_P2;Temp;Humidity;BMP_temperature;BMP_pressure;BME280_temperature;BME280_humidity;BME280_pressure;Samples;Min_cycle;Max_cycle;Signal;HPM_P1;HPM_P2
2020/12/08 00:00:50;;;;;;;14.70;10.50;;;1.40;86.60;;;;;;4995126;28;20193;-78
2020/12/08 00:03:16;;;;;;;16.48;10.50;;;1.30;87.20;;;;;;4994495;28;20213;-80
2020/12/08 00:05:43;;;;;;;19.02;11.52;;;1.30;88.70;;;;;;4986694;28;20220;-80
2020/12/08 00:08:09;;;;;;;15.30;10.73;;;1.40;89.10;;;;;;4985798;28;20244;-79
2020/12/08 00:10:36;;;;;;;15.95;10.18;;;1.50;88.90;;;;;;4982118;28;20221;-80
2020/12/08 00:13:03;;;;;;;15.90;10.80;;;1.50;86.70;;;;;;4981641;28;20951;-79
2020/12/08 00:15:29;;;;;;;16.58;10.32;;;1.60;86.50;;;;;;4982376;28;20216;-79
2020/12/08 00:17:55;;;;;;;17.25;10.77;;;1.70;85.00;;;;;;4981285;28;20209;-80
2020/12/08 00:20:22;;;;;;;14.27;9.80;;;1.70;84.10;;;;;;4985183;28;20300;-79
2020/12/08 00:33:01;;;;;;;12.80;8.95;;;1.60;82.70;;;;;;4902990;29;20243;-78
2020/12/08 00:48:22;;;;;;;16.25;9.65;;;1.50;85.80;;;;;;4899152;29;20196;-79
2020/12/08 00:50:54;;;;;;;15.88;10.07;;;1.40;86.30;;;;;;4897858;29;20255;-79
2020/12/08 00:59:49;;;;;;;17.45;10.88;;;1.10;86.60;;;;;;4932764;29;20266;-80
2020/12/08 01:05:25;;;;;;;17.40;10.15;;;0.80;89.40;;;;;;4943532;29;20207;-78
2020/12/08 01:07:57;;;;;;;16.73;9.90;;;0.80;90.10;;;;;;4968055;29;20233;-79
2020/12/08 01:10:43;;;;;;;21.35;11.00;;;0.70;90.50;;;;;;4958470;29;20190;-79
2020/12/08 01:13:14;;;;;;;16.60;9.77;;;0.60;90.90;;;;;;4959171;29;20228;-79
2020/12/08 01:15:49;;;;;;;19.52;11.05;;;0.60;91.40;;;;;;4959168;29;20198;-78
2020/12/08 01:18:23;;;;;;;18.08;10.55;;;0.60;91.70;;;;;;4957116;29;20714;-79
2020/12/08 01:20:57;;;;;;;21.80;11.55;;;0.80;92.60;;;;;;4927147;29;20202;-79
2020/12/08 01:29:40;;;;;;;24.15;11.93;;;0.70;92.80;;;;;;4984345;28;20227;-78
2020/12/08 01:32:09;;;;;;;22.60;12.45;;;0.70;93.00;;;;;;4992765;28;20216;-79
2020/12/08 01:34:40;;;;;;;25.25;13.32;;;0.70;93.40;;;;;;5003181;28;20205;-79
2020/12/08 01:37:13;;;;;;;23.05;12.43;;;0.60;93.50;;;;;;5002729;28;20217;-78
2020/12/08 01:39:43;;;;;;;21.00;13.32;;;0.70;94.00;;;;;;4995605;28;20228;-78
2020/12/08 01:42:21;;;;;;;23.13;12.10;;;0.80;94.10;;;;;;4985284;28;20224;-78
2020/12/08 01:44:52;;;;;;;25.17;13.07;;;0.80;94.00;;;;;;4982250;28;20549;-79
2020/12/08 01:47:33;;;;;;;24.90;12.73;;;0.80;94.10;;;;;;4983690;28;20208;-79
2020/12/08 01:50:05;;;;;;;19.80;11.82;;;0.70;94.00;;;;;;4983701;28;20189;-80
2020/12/08 01:52:34;;;;;;;24.38;13.15;;;0.80;94.40;;;;;;4983859;28;20253;-79
2020/12/08 01:55:06;;;;;;;27.15;14.05;;;0.80;94.50;;;;;;4994007;28;20217;-78
2020/12/08 01:57:34;;;;;;;22.85;13.70;;;0.90;94.60;;;;;;4997669;28;20214;-78
2020/12/08 02:00:15;;;;;;;19.42;12.70;;;1.10;94.20;;;;;;4997809;28;20204;-80
2020/12/08 02:02:46;;;;;;;21.52;12.43;;;1.10;93.90;;;;;;4989003;28;20245;-79
2020/12/08 02:05:17;;;;;;;23.05;13.18;;;1.00;93.60;;;;;;4985916;28;20205;-79
2020/12/08 02:08:08;;;;;;;21.88;13.52;;;1.00;93.70;;;;;;4991117;28;20205;-78
2020/12/08 02:10:42;;;;;;;27.58;14.05;;;1.10;93.30;;;;;;4993590;28;20201;-79
2020/12/08 02:13:24;;;;;;;25.70;13.05;;;1.00;93.20;;;;;;4996020;28;20307;-79
2020/12/08 02:19:06;;;;;;;26.95;14.30;;;1.10;92.60;;;;;;4995884;28;20628;-78
2020/12/08 02:21:44;;;;;;;28.58;14.32;;;1.10;92.70;;;;;;4994965;28;20224;-79
2020/12/08 02:24:16;;;;;;;24.48;14.38;;;1.20;92.50;;;;;;4989040;28;20236;-78
2020/12/08 02:26:47;;;;;;;23.48;13.70;;;1.10;92.30;;;;;;4984634;28;20219;-79
2020/12/08 02:29:20;;;;;;;26.70;14.30;;;1.20;92.80;;;;;;4982754;28;20259;-78
2020/12/08 02:31:50;;;;;;;26.45;14.60;;;1.10;92.60;;;;;;4981790;28;20197;-78
2020/12/08 02:34:26;;;;;;;27.67;13.80;;;1.20;92.10;;;;;;4982877;28;20240;-79
2020/12/08 02:37:11;;;;;;;24.33;14.15;;;1.20;92.00;;;;;;4984650;28;20216;-78
2020/12/08 02:39:41;;;;;;;24.92;15.20;;;1.20;92.20;;;;;;4987595;28;20292;-78
2020/12/08 02:42:26;;;;;;;25.27;14.80;;;1.40;92.00;;;;;;4986953;28;20217;-79
2020/12/08 02:44:57;;;;;;;24.27;14.60;;;1.50;91.50;;;;;;4982505;28;20261;-79
2020/12/08 02:47:33;;;;;;;25.45;14.73;;;1.50;91.70;;;;;;4985689;28;20200;-78
2020/12/08 02:50:01;;;;;;;25.27;14.65;;;1.60;91.20;;;;;;4981364;28;20220;-78
2020/12/08 02:52:41;;;;;;;26.73;15.40;;;1.60;91.10;;;;;;4982217;28;20233;-79
2020/12/08 02:55:12;;;;;;;25.25;15.18;;;1.70;91.10;;;;;;4981809;28;20642;-78
2020/12/08 03:00:29;;;;;;;23.05;14.35;;;1.70;90.80;;;;;;4981478;28;20209;-79
2020/12/08 03:03:00;;;;;;;25.10;14.82;;;1.70;90.90;;;;;;4979184;28;20262;-78
2020/12/08 03:05:29;;;;;;;25.50;15.15;;;1.80;90.90;;;;;;4980136;28;20283;-78
2020/12/08 03:10:55;;;;;;;28.60;15.07;;;1.80;90.80;;;;;;4978684;28;20693;-78
2020/12/08 03:13:43;;;;;;;28.38;16.20;;;1.80;90.70;;;;;;4989138;28;20225;-78
2020/12/08 03:16:18;;;;;;;30.95;15.85;;;1.80;90.40;;;;;;4990849;28;20297;-78
2020/12/08 03:21:33;;;;;;;27.55;16.85;;;1.80;90.10;;;;;;4990256;28;20224;-78
2020/12/08 03:24:18;;;;;;;28.10;15.65;;;1.90;90.20;;;;;;4991240;28;20300;-79
2020/12/08 03:26:48;;;;;;;27.42;15.05;;;1.90;90.10;;;;;;4983594;28;20776;-78
2020/12/08 03:29:15;;;;;;;28.10;16.05;;;1.80;90.10;;;;;;4977304;28;20237;-78
2020/12/08 03:31:41;;;;;;;28.98;16.15;;;1.90;90.10;;;;;;4983870;28;20217;-79
2020/12/08 03:34:08;;;;;;;27.02;15.95;;;1.90;89.90;;;;;;4986199;28;20252;-79
2020/12/08 03:36:35;;;;;;;30.58;15.35;;;1.90;89.90;;;;;;4978416;28;20206;-78
2020/12/08 03:39:03;;;;;;;24.65;14.75;;;2.00;89.20;;;;;;4977141;28;20209;-78
2020/12/08 03:41:29;;;;;;;26.88;15.32;;;2.00;89.50;;;;;;4977141;28;20309;-77
2020/12/08 03:43:56;;;;;;;26.73;14.85;;;1.90;89.10;;;;;;4974829;28;20229;-77
2020/12/08 03:46:24;;;;;;;25.13;15.00;;;1.90;89.70;;;;;;4975926;28;20202;-78
2020/12/08 03:48:52;;;;;;;26.58;15.80;;;2.00;90.00;;;;;;4986821;28;20295;-77
2020/12/08 03:51:21;;;;;;;25.55;14.88;;;2.10;89.00;;;;;;4987172;28;20295;-78
2020/12/08 03:53:48;;;;;;;23.00;14.70;;;2.10;88.30;;;;;;4988537;28;20225;-78
2020/12/08 03:56:19;;;;;;;27.73;15.57;;;2.20;87.20;;;;;;4987379;28;20268;-79
2020/12/08 03:58:47;;;;;;;23.70;15.15;;;2.20;87.20;;;;;;4980633;28;20217;-78
2020/12/08 04:01:18;;;;;;;23.08;15.05;;;2.20;86.90;;;;;;4987055;28;20225;-79
2020/12/08 04:03:46;;;;;;;23.55;13.73;;;2.30;86.70;;;;;;4988211;28;20225;-77
2020/12/08 04:06:13;;;;;;;25.70;14.73;;;2.30;85.90;;;;;;4988956;28;20236;-78
2020/12/08 04:08:40;;;;;;;22.75;14.57;;;2.30;85.10;;;;;;4991502;28;20233;-78
2020/12/08 04:11:09;;;;;;;23.00;14.68;;;2.30;84.50;;;;;;4992483;28;20277;-77
2020/12/08 04:13:38;;;;;;;25.45;14.05;;;2.40;83.90;;;;;;4993418;28;20225;-78
2020/12/08 04:16:06;;;;;;;24.38;14.65;;;2.30;83.80;;;;;;4992212;28;20221;-79
2020/12/08 04:18:33;;;;;;;23.38;13.88;;;2.30;83.40;;;;;;4988699;28;20256;-79
2020/12/08 04:21:01;;;;;;;21.88;13.35;;;2.40;83.40;;;;;;4988580;28;20208;-79
2020/12/08 04:23:28;;;;;;;21.63;14.10;;;2.40;83.10;;;;;;4989268;28;20233;-78
2020/12/08 04:25:55;;;;;;;22.13;14.27;;;2.40;83.40;;;;;;4987936;28;20228;-79
2020/12/08 04:28:27;;;;;;;22.45;14.75;;;2.50;82.60;;;;;;4981379;28;20245;-78
2020/12/08 04:30:58;;;;;;;22.50;13.75;;;2.50;81.90;;;;;;4981372;28;20201;-78
2020/12/08 04:33:28;;;;;;;26.15;14.73;;;2.50;82.10;;;;;;4983741;28;20263;-78
2020/12/08 04:35:55;;;;;;;20.38;14.07;;;2.50;81.40;;;;;;4989378;28;20205;-78
2020/12/08 04:38:23;;;;;;;22.00;13.30;;;2.60;81.40;;;;;;4989852;28;20209;-78
2020/12/08 04:40:55;;;;;;;20.15;13.93;;;2.60;81.00;;;;;;4991265;28;20272;-80
2020/12/08 04:43:28;;;;;;;22.08;14.68;;;2.60;81.30;;;;;;4993347;28;20237;-78
2020/12/08 04:46:12;;;;;;;23.45;13.68;;;2.50;80.30;;;;;;4997158;28;20216;-80
2020/12/08 04:48:53;;;;;;;21.17;13.48;;;2.50;80.40;;;;;;4995930;28;20212;-79
2020/12/08 04:51:22;;;;;;;21.65;14.18;;;2.50;80.20;;;;;;4997437;28;20194;-78
2020/12/08 04:54:03;;;;;;;21.65;14.10;;;2.50;80.60;;;;;;4995935;28;20229;-79
2020/12/08 04:56:41;;;;;;;23.40;14.38;;;2.50;80.90;;;;;;4989989;28;20240;-78
2020/12/08 05:03:03;;;;;;;23.25;14.50;;;2.50;81.80;;;;;;5010967;28;20229;-78
2020/12/08 05:18:17;;;;;;;21.83;12.75;;;2.70;78.20;;;;;;4918610;29;20229;-79
2020/12/08 05:23:38;;;;;;;19.05;12.05;;;2.70;77.20;;;;;;4918855;29;20299;-80
2020/12/08 05:26:07;;;;;;;23.33;13.25;;;2.70;77.40;;;;;;4904409;29;20211;-78
2020/12/08 05:28:34;;;;;;;21.67;12.70;;;2.70;77.10;;;;;;4903091;29;20354;-79
2020/12/08 05:31:01;;;;;;;23.45;13.27;;;2.70;77.10;;;;;;4903949;29;20239;-78
2020/12/08 05:33:28;;;;;;;19.98;13.75;;;2.70;77.00;;;;;;4904345;29;20679;-79
2020/12/08 05:35:58;;;;;;;19.05;13.57;;;2.70;77.10;;;;;;4907499;29;20692;-79
2020/12/08 05:38:33;;;;;;;23.45;14.35;;;2.80;77.70;;;;;;4905817;29;20219;-79
2020/12/08 05:41:03;;;;;;;22.58;13.88;;;2.80;76.90;;;;;;4913785;29;20223;-79
2020/12/08 05:43:35;;;;;;;22.85;13.70;;;2.80;76.60;;;;;;4916784;29;20235;-80
2020/12/08 05:46:04;;;;;;;21.58;14.10;;;2.80;76.30;;;;;;4915097;29;20212;-80
2020/12/08 05:48:32;;;;;;;22.17;13.30;;;2.80;76.10;;;;;;4916097;29;20243;-78
2020/12/08 05:51:01;;;;;;;20.77;13.00;;;2.80;76.10;;;;;;4958305;28;20653;-79
2020/12/08 05:53:27;;;;;;;20.05;12.43;;;2.80;76.50;;;;;;4989194;28;20252;-79
2020/12/08 05:56:03;;;;;;;24.98;14.10;;;2.90;76.30;;;;;;4988529;28;20265;-79
2020/12/08 05:58:30;;;;;;;23.02;14.38;;;2.90;75.90;;;;;;4989748;28;20212;-79
2020/12/08 06:01:01;;;;;;;23.58;13.38;;;2.90;75.70;;;;;;4991806;28;20630;-80
2020/12/08 06:03:27;;;;;;;26.75;14.23;;;2.90;75.60;;;;;;4990769;28;20264;-78
2020/12/08 06:06:06;;;;;;;23.60;13.65;;;2.90;75.90;;;;;;4993043;28;20249;-79
2020/12/08 06:08:42;;;;;;;23.00;14.88;;;2.90;76.40;;;;;;4985145;28;20217;-80
2020/12/08 06:11:08;;;;;;;22.85;13.93;;;2.90;76.70;;;;;;4984878;28;20256;-78
2020/12/08 06:13:35;;;;;;;21.10;13.48;;;2.90;76.40;;;;;;4989844;28;20228;-80
2020/12/08 06:16:14;;;;;;;26.05;14.95;;;2.90;76.20;;;;;;4987432;28;20349;-79
2020/12/08 06:18:41;;;;;;;30.63;15.23;;;2.90;76.20;;;;;;4987311;28;20612;-79
2020/12/08 06:21:20;;;;;;;23.90;13.75;;;2.90;76.40;;;;;;4988690;28;20228;-80
2020/12/08 06:23:47;;;;;;;29.02;15.32;;;2.80;76.80;;;;;;4988827;28;20264;-79
2020/12/08 06:26:21;;;;;;;26.60;15.02;;;2.80;77.70;;;;;;4988784;28;20221;-80
2020/12/08 06:28:48;;;;;;;25.30;14.48;;;2.70;79.50;;;;;;4989137;28;20209;-79
2020/12/08 06:31:14;;;;;;;26.83;16.30;;;2.60;80.00;;;;;;4989222;28;20218;-79
2020/12/08 06:33:51;;;;;;;27.23;16.38;;;2.50;81.00;;;;;;4986229;28;20229;-79
2020/12/08 06:36:20;;;;;;;31.38;16.95;;;2.50;81.80;;;;;;4980842;28;20283;-78
2020/12/08 06:38:56;;;;;;;29.60;17.38;;;2.40;83.30;;;;;;4982735;28;20190;-79
2020/12/08 06:41:28;;;;;;;30.42;17.80;;;2.40;84.40;;;;;;4983114;28;20209;-79
2020/12/08 06:43:54;;;;;;;29.77;16.95;;;2.40;85.20;;;;;;4984082;28;20233;-79
2020/12/08 06:46:21;;;;;;;30.73;16.75;;;2.40;85.50;;;;;;4982706;28;20726;-78
2020/12/08 06:48:59;;;;;;;34.28;19.33;;;2.40;85.70;;;;;;4991307;28;20216;-79
2020/12/08 06:51:27;;;;;;;30.52;16.35;;;2.30;85.90;;;;;;4992844;28;20201;-80
2020/12/08 06:53:54;;;;;;;30.08;17.33;;;2.30;86.50;;;;;;4993286;28;20229;-79
2020/12/08 06:56:31;;;;;;;37.45;18.38;;;2.30;86.30;;;;;;4994841;28;20263;-79
2020/12/08 06:58:57;;;;;;;33.75;19.02;;;2.40;86.20;;;;;;4993339;28;20256;-78
2020/12/08 07:01:24;;;;;;;37.00;18.10;;;2.40;86.00;;;;;;4994596;28;20248;-79
2020/12/08 07:03:52;;;;;;;33.80;18.10;;;2.30;85.70;;;;;;4987203;28;20241;-79
2020/12/08 07:06:20;;;;;;;32.88;17.98;;;2.40;85.70;;;;;;4980223;28;20198;-79
2020/12/08 07:08:48;;;;;;;32.80;18.67;;;2.30;85.30;;;;;;4981037;28;20244;-79
2020/12/08 07:11:18;;;;;;;29.95;17.58;;;2.40;85.30;;;;;;4982323;28;20217;-79
2020/12/08 07:13:58;;;;;;;27.40;16.92;;;2.40;85.30;;;;;;4980183;28;20240;-78
2020/12/08 07:16:27;;;;;;;30.23;16.58;;;2.40;85.10;;;;;;4980315;28;20205;-79
2020/12/08 07:18:54;;;;;;;29.73;17.35;;;2.40;85.10;;;;;;4982523;28;20213;-79
2020/12/08 07:21:21;;;;;;;29.15;17.52;;;2.40;85.40;;;;;;4984532;28;20299;-80
2020/12/08 07:23:52;;;;;;;35.58;19.52;;;2.30;85.40;;;;;;4994246;28;20249;-78
2020/12/08 07:26:22;;;;;;;31.42;17.00;;;2.40;85.20;;;;;;4992250;28;20217;-79
2020/12/08 07:28:49;;;;;;;35.60;19.35;;;2.40;85.60;;;;;;4993132;28;20198;-77
2020/12/08 07:31:20;;;;;;;34.38;18.42;;;2.40;84.50;;;;;;4985473;28;20642;-78
2020/12/08 07:33:47;;;;;;;29.70;17.48;;;2.50;84.70;;;;;;5003646;28;20235;-78
2020/12/08 07:36:34;;;;;;;36.55;18.58;;;2.60;84.50;;;;;;5002174;28;20204;-78
2020/12/08 07:39:04;;;;;;;31.17;18.48;;;2.60;83.80;;;;;;4998142;28;20704;-77
2020/12/08 07:41:31;;;;;;;26.77;16.13;;;2.70;83.10;;;;;;5002042;28;20247;-78
2020/12/08 07:43:59;;;;;;;29.48;16.95;;;2.80;82.20;;;;;;5007787;28;20235;-78
2020/12/08 07:46:27;;;;;;;28.08;16.85;;;2.80;81.30;;;;;;5004352;28;20218;-80
2020/12/08 07:49:00;;;;;;;29.13;16.55;;;2.80;81.30;;;;;;4998514;28;20236;-77
2020/12/08 07:51:27;;;;;;;30.27;17.00;;;2.80;80.40;;;;;;5001355;28;20274;-78
2020/12/08 07:53:54;;;;;;;31.83;18.42;;;2.90;79.70;;;;;;4999768;28;20279;-80
2020/12/08 07:56:25;;;;;;;30.70;16.95;;;2.90;79.60;;;;;;4998911;28;20244;-77
2020/12/08 07:58:51;;;;;;;30.20;17.08;;;2.90;79.60;;;;;;4995075;28;20262;-81
2020/12/08 08:01:18;;;;;;;32.22;18.17;;;2.80;79.60;;;;;;4981953;28;20212;-80
2020/12/08 08:03:44;;;;;;;30.73;17.77;;;2.60;79.90;;;;;;4990909;28;20276;-78
2020/12/08 08:06:16;;;;;;;35.63;19.20;;;2.50;81.00;;;;;;4991684;28;20222;-79
2020/12/08 08:08:43;;;;;;;28.17;17.05;;;2.50;82.30;;;;;;4993381;28;20214;-79
2020/12/08 08:11:14;;;;;;;28.98;16.52;;;2.40;82.80;;;;;;4992643;28;20240;-79
2020/12/08 08:13:41;;;;;;;31.05;17.55;;;2.30;83.30;;;;;;4991804;28;20232;-79
2020/12/08 08:16:10;;;;;;;30.90;18.08;;;2.30;84.20;;;;;;4989402;28;20277;-81
2020/12/08 08:18:37;;;;;;;31.95;17.55;;;2.30;84.90;;;;;;4989181;28;20205;-80
2020/12/08 08:21:04;;;;;;;28.70;18.33;;;2.40;85.10;;;;;;4983795;28;20230;-79
2020/12/08 08:23:31;;;;;;;33.35;18.13;;;2.50;84.90;;;;;;4984040;28;20243;-80
2020/12/08 08:25:57;;;;;;;33.42;19.98;;;2.60;83.90;;;;;;4982173;28;20210;-79
2020/12/08 08:28:25;;;;;;;33.80;18.17;;;2.60;82.80;;;;;;4979670;28;20220;-79
2020/12/08 08:30:52;;;;;;;34.63;19.67;;;2.40;82.80;;;;;;4978519;28;20213;-79
2020/12/08 08:33:19;;;;;;;35.35;18.60;;;2.40;83.30;;;;;;4978107;28;20224;-78
2020/12/08 08:35:45;;;;;;;36.10;18.67;;;2.40;83.00;;;;;;4979269;28;20704;-80
2020/12/08 08:38:12;;;;;;;36.30;20.10;;;2.40;83.30;;;;;;4989816;28;20229;-77
2020/12/08 08:40:39;;;;;;;27.98;15.52;;;2.40;83.10;;;;;;4997155;28;20197;-79
2020/12/08 08:43:05;;;;;;;28.05;16.58;;;2.40;83.30;;;;;;4993014;28;20245;-80
2020/12/08 08:45:32;;;;;;;34.17;18.45;;;2.50;83.30;;;;;;4994138;28;20223;-79
2020/12/08 08:47:59;;;;;;;34.45;19.27;;;2.50;82.80;;;;;;4993394;28;20213;-79
2020/12/08 08:50:26;;;;;;;30.63;18.52;;;2.50;82.30;;;;;;4989411;28;20205;-80
2020/12/08 08:52:52;;;;;;;34.38;18.13;;;2.50;82.10;;;;;;4989946;28;20233;-78
2020/12/08 08:55:19;;;;;;;30.40;17.83;;;2.60;81.70;;;;;;4987885;28;20725;-79
2020/12/08 08:57:45;;;;;;;33.88;18.15;;;2.70;81.00;;;;;;4989768;28;20213;-78
2020/12/08 09:00:12;;;;;;;30.75;15.95;;;2.70;80.50;;;;;;4995835;28;20357;-77
2020/12/08 09:02:39;;;;;;;32.53;17.48;;;2.70;79.50;;;;;;4995512;28;20256;-79
2020/12/08 09:05:07;;;;;;;31.25;18.15;;;2.80;79.60;;;;;;4987859;28;20225;-81
2020/12/08 09:07:34;;;;;;;32.00;18.15;;;2.80;77.80;;;;;;4977493;28;20255;-78
2020/12/08 09:10:01;;;;;;;39.90;18.00;;;2.80;77.90;;;;;;4977089;28;20213;-78
2020/12/08 09:12:28;;;;;;;32.83;16.88;;;2.90;77.80;;;;;;4977721;28;20229;-80
2020/12/08 09:14:57;;;;;;;26.88;16.35;;;3.00;77.20;;;;;;4978204;28;20568;-78
2020/12/08 09:17:27;;;;;;;32.95;17.73;;;3.00;76.20;;;;;;4977674;28;20213;-78
2020/12/08 09:19:53;;;;;;;30.40;17.77;;;3.00;75.60;;;;;;4978431;28;20210;-78
2020/12/08 09:22:22;;;;;;;29.52;17.40;;;3.10;75.60;;;;;;4988860;28;20748;-78
2020/12/08 09:24:48;;;;;;;30.48;17.70;;;3.20;75.20;;;;;;4986188;28;20236;-77
2020/12/08 09:27:16;;;;;;;29.30;16.80;;;3.30;75.20;;;;;;4977740;28;20232;-78
2020/12/08 09:29:42;;;;;;;30.23;16.73;;;3.30;72.10;;;;;;4977854;28;20213;-80
2020/12/08 09:32:09;;;;;;;30.45;17.00;;;3.30;73.60;;;;;;4978497;28;20212;-80
2020/12/08 09:34:36;;;;;;;27.27;16.05;;;3.30;73.00;;;;;;4978636;28;20209;-78
2020/12/08 09:37:03;;;;;;;29.65;16.42;;;3.50;72.50;;;;;;4978684;28;20228;-79
2020/12/08 09:39:31;;;;;;;31.20;17.50;;;3.60;71.80;;;;;;4982992;28;20213;-78
2020/12/08 09:41:57;;;;;;;31.38;16.75;;;3.50;71.70;;;;;;4986268;28;20213;-78
2020/12/08 09:44:25;;;;;;;31.45;17.40;;;3.60;71.80;;;;;;4987742;28;20240;-78
2020/12/08 09:46:52;;;;;;;25.35;15.40;;;3.50;70.30;;;;;;4994257;28;20220;-80
2020/12/08 09:49:19;;;;;;;31.60;18.02;;;3.50;71.80;;;;;;4993993;28;20201;-79
2020/12/08 09:51:46;;;;;;;30.75;17.02;;;3.50;71.70;;;;;;4995818;28;20216;-78
2020/12/08 09:54:12;;;;;;;29.98;16.30;;;3.50;71.70;;;;;;4993211;28;20229;-78
2020/12/08 09:56:44;;;;;;;27.95;17.33;;;3.50;71.70;;;;;;4985146;28;20205;-78
2020/12/08 09:59:11;;;;;;;30.75;17.23;;;3.60;71.00;;;;;;4984927;28;20205;-79
2020/12/08 10:01:37;;;;;;;30.25;17.48;;;3.50;71.30;;;;;;4986067;28;20589;-78
2020/12/08 10:04:04;;;;;;;31.30;16.60;;;3.60;71.20;;;;;;4982779;28;20229;-80
2020/12/08 10:06:31;;;;;;;29.35;16.58;;;3.60;70.90;;;;;;4982404;28;20221;-78
2020/12/08 10:08:57;;;;;;;29.05;16.85;;;3.70;71.10;;;;;;4983880;28;20217;-79
2020/12/08 10:11:25;;;;;;;32.83;18.55;;;3.70;70.90;;;;;;4992328;28;20214;-78
2020/12/08 10:13:54;;;;;;;31.35;18.17;;;3.70;70.80;;;;;;4985331;28;20284;-81
2020/12/08 10:16:22;;;;;;;32.10;17.35;;;3.70;71.40;;;;;;4983495;28;20212;-78
2020/12/08 10:18:49;;;;;;;35.17;18.98;;;3.60;71.10;;;;;;4982729;28;20696;-80
2020/12/08 10:21:18;;;;;;;28.40;17.50;;;3.60;71.50;;;;;;4982590;28;20214;-77
2020/12/08 10:23:45;;;;;;;29.48;17.25;;;3.60;71.50;;;;;;4982372;28;20249;-80
2020/12/08 10:26:12;;;;;;;30.90;19.00;;;3.60;71.80;;;;;;4983382;28;20224;-79
2020/12/08 10:28:39;;;;;;;30.52;16.40;;;3.60;71.80;;;;;;4991201;28;20220;-80
2020/12/08 10:31:06;;;;;;;26.92;16.02;;;3.70;71.70;;;;;;4993309;28;20217;-81
2020/12/08 10:33:33;;;;;;;26.85;16.15;;;3.80;70.70;;;;;;4985553;28;20309;-81
2020/12/08 10:36:00;;;;;;;30.20;18.10;;;3.80;70.10;;;;;;4994512;28;20249;-78
2020/12/08 10:38:27;;;;;;;28.70;17.08;;;4.00;70.10;;;;;;4997215;28;20257;-78
2020/12/08 10:40:54;;;;;;;33.17;19.25;;;4.10;69.50;;;;;;4997602;28;20216;-78
2020/12/08 10:43:21;;;;;;;25.05;14.65;;;4.30;68.40;;;;;;4997211;28;20249;-78
2020/12/08 10:45:48;;;;;;;28.45;17.23;;;4.40;67.90;;;;;;4997202;28;20198;-79
2020/12/08 10:48:15;;;;;;;26.13;15.68;;;4.40;66.50;;;;;;4987157;28;20209;-78
2020/12/08 10:50:43;;;;;;;29.10;16.98;;;4.40;66.90;;;;;;4982177;28;20269;-78
2020/12/08 10:53:10;;;;;;;26.63;17.17;;;4.50;65.90;;;;;;4983515;28;20287;-78
2020/12/08 10:55:36;;;;;;;30.17;16.92;;;4.50;65.80;;;;;;4982706;28;20213;-79
2020/12/08 10:58:03;;;;;;;29.17;17.45;;;4.50;65.60;;;;;;4982408;28;20210;-80
2020/12/08 11:00:30;;;;;;;30.90;17.10;;;4.40;65.30;;;;;;4982121;28;20241;-79
2020/12/08 11:02:57;;;;;;;28.10;17.48;;;4.40;64.70;;;;;;4982776;28;20230;-79
2020/12/08 11:05:26;;;;;;;30.90;17.05;;;4.40;65.40;;;;;;4983901;28;20257;-80
2020/12/08 11:07:57;;;;;;;27.48;16.77;;;4.40;65.40;;;;;;4985726;28;20221;-81
2020/12/08 11:10:29;;;;;;;30.10;17.02;;;4.50;64.90;;;;;;4984753;28;20201;-80
2020/12/08 11:12:55;;;;;;;29.48;17.98;;;4.50;64.90;;;;;;4985700;28;20237;-80
2020/12/08 11:15:22;;;;;;;29.25;17.80;;;4.50;64.50;;;;;;4996934;28;20214;-77
2020/12/08 11:17:49;;;;;;;26.75;16.00;;;4.50;64.10;;;;;;4998531;28;20194;-78
2020/12/08 11:20:15;;;;;;;28.67;17.17;;;4.60;64.30;;;;;;4999516;28;20233;-77
2020/12/08 11:22:43;;;;;;;27.05;16.30;;;4.60;64.00;;;;;;4998926;28;20213;-78
2020/12/08 11:25:09;;;;;;;31.20;16.92;;;4.70;64.10;;;;;;4998950;28;20229;-78
2020/12/08 11:27:36;;;;;;;27.17;16.55;;;4.70;64.10;;;;;;4999174;28;20217;-80
2020/12/08 11:30:03;;;;;;;29.77;17.33;;;4.60;64.00;;;;;;4998046;28;20217;-79
2020/12/08 11:32:48;;;;;;;26.48;17.25;;;4.60;64.00;;;;;;4997855;28;20221;-78
2020/12/08 11:35:19;;;;;;;27.30;16.25;;;4.70;64.20;;;;;;4995156;28;20194;-79
2020/12/08 11:37:56;;;;;;;29.42;17.27;;;4.80;63.50;;;;;;4995322;28;20299;-78
2020/12/08 11:40:23;;;;;;;31.85;18.33;;;4.80;62.50;;;;;;4989574;28;20212;-80
2020/12/08 11:42:51;;;;;;;30.20;17.00;;;4.80;62.70;;;;;;4984963;28;20236;-79
2020/12/08 11:45:18;;;;;;;27.58;17.15;;;4.90;62.90;;;;;;4984089;28;20234;-78
2020/12/08 11:47:45;;;;;;;25.90;17.13;;;4.90;61.90;;;;;;4982203;28;20209;-79
2020/12/08 11:50:13;;;;;;;28.80;16.50;;;5.00;61.80;;;;;;4989168;28;20205;-79
2020/12/08 11:52:40;;;;;;;30.33;16.70;;;5.10;61.60;;;;;;4992624;28;20248;-78
2020/12/08 11:55:10;;;;;;;29.48;15.93;;;5.10;60.70;;;;;;4991234;28;20216;-78
2020/12/08 11:57:38;;;;;;;25.95;14.93;;;5.10;60.00;;;;;;4983350;28;20336;-78
2020/12/08 12:00:10;;;;;;;24.58;13.85;;;5.10;60.90;;;;;;4984115;28;20226;-78
2020/12/08 12:02:43;;;;;;;27.42;16.10;;;5.10;60.20;;;;;;4986069;28;20317;-80
2020/12/08 12:05:21;;;;;;;27.08;15.93;;;5.00;60.00;;;;;;4983272;28;20691;-78
2020/12/08 12:07:58;;;;;;;25.55;15.00;;;5.10;60.00;;;;;;4985066;28;20267;-78
2020/12/08 12:10:29;;;;;;;24.02;14.68;;;5.10;60.50;;;;;;4985918;28;20205;-78
2020/12/08 12:12:56;;;;;;;24.73;15.07;;;5.00;59.90;;;;;;4985471;28;20777;-78
2020/12/08 12:15:24;;;;;;;25.92;15.43;;;5.00;59.80;;;;;;4988941;28;20250;-78
2020/12/08 12:18:02;;;;;;;26.25;15.18;;;5.10;59.90;;;;;;4993701;28;20209;-78
2020/12/08 12:20:36;;;;;;;26.33;16.15;;;5.00;59.90;;;;;;4993642;28;20194;-78
2020/12/08 12:23:03;;;;;;;28.35;16.38;;;5.00;59.90;;;;;;4994630;28;20293;-78
2020/12/08 12:25:30;;;;;;;28.23;15.48;;;5.00;59.80;;;;;;4997460;28;20230;-77
2020/12/08 12:27:57;;;;;;;24.80;15.65;;;5.00;59.30;;;;;;4998688;28;20217;-78
2020/12/08 12:30:23;;;;;;;29.88;17.23;;;5.00;59.80;;;;;;4998818;28;20198;-78
2020/12/08 12:32:50;;;;;;;29.30;16.13;;;5.10;59.80;;;;;;4994713;28;20257;-79
2020/12/08 12:35:17;;;;;;;26.05;16.63;;;5.10;59.50;;;;;;4993620;28;20221;-79
2020/12/08 12:37:43;;;;;;;26.55;15.98;;;5.20;59.10;;;;;;4994915;28;20193;-79
2020/12/08 12:40:10;;;;;;;26.38;17.20;;;5.30;59.10;;;;;;4995187;28;20208;-78
2020/12/08 12:42:38;;;;;;;29.67;18.02;;;5.10;58.90;;;;;;4993310;28;20265;-78
2020/12/08 12:45:04;;;;;;;24.75;15.82;;;5.10;59.20;;;;;;4994244;28;20243;-79
2020/12/08 12:47:31;;;;;;;29.10;16.83;;;5.10;59.90;;;;;;4991447;28;20210;-78
2020/12/08 12:49:57;;;;;;;24.65;16.23;;;5.10;60.00;;;;;;4994817;28;20208;-77
2020/12/08 12:52:24;;;;;;;30.65;17.50;;;5.10;60.00;;;;;;4994547;28;20244;-79
2020/12/08 12:54:52;;;;;;;30.13;17.30;;;5.20;60.00;;;;;;4988841;28;20229;-78
2020/12/08 12:57:19;;;;;;;26.95;16.70;;;5.20;60.00;;;;;;4989850;28;20205;-76
2020/12/08 12:59:46;;;;;;;27.40;17.90;;;5.20;60.00;;;;;;4989828;28;20213;-79
2020/12/08 13:02:13;;;;;;;26.48;15.23;;;5.30;59.50;;;;;;4991201;28;20203;-80
2020/12/08 13:04:40;;;;;;;30.08;17.45;;;5.20;59.00;;;;;;4989889;28;20276;-78
2020/12/08 13:07:06;;;;;;;29.92;17.48;;;5.20;59.60;;;;;;4990996;28;20274;-79
2020/12/08 13:09:33;;;;;;;28.77;17.13;;;5.20;59.20;;;;;;4994573;28;20240;-77
2020/12/08 13:12:00;;;;;;;29.30;17.35;;;5.10;60.00;;;;;;5004589;28;20209;-79
2020/12/08 13:14:27;;;;;;;28.63;17.58;;;5.10;60.00;;;;;;4999412;28;20205;-79
2020/12/08 13:16:54;;;;;;;32.00;18.00;;;5.10;59.70;;;;;;5000538;28;20217;-77
2020/12/08 13:19:21;;;;;;;27.40;17.50;;;5.10;60.00;;;;;;5006057;28;20223;-77
2020/12/08 13:21:47;;;;;;;30.63;17.33;;;5.00;60.30;;;;;;5010925;28;20196;-77
2020/12/08 13:24:14;;;;;;;29.23;17.60;;;5.10;60.50;;;;;;5012675;28;20235;-80
2020/12/08 13:26:41;;;;;;;29.35;17.63;;;5.20;60.00;;;;;;5016996;28;20213;-78
2020/12/08 13:29:08;;;;;;;23.80;13.88;;;5.10;59.70;;;;;;5016446;28;20236;-79
2020/12/08 13:31:34;;;;;;;28.42;16.90;;;5.20;59.40;;;;;;5007420;28;20256;-79
2020/12/08 13:34:02;;;;;;;29.63;18.42;;;5.10;59.70;;;;;;5008713;28;20230;-79
2020/12/08 13:36:29;;;;;;;31.02;17.67;;;5.00;59.90;;;;;;5009040;28;20220;-78
2020/12/08 13:38:56;;;;;;;29.58;18.80;;;5.00;59.90;;;;;;5007737;28;20247;-78
2020/12/08 13:41:22;;;;;;;29.67;17.25;;;4.90;60.60;;;;;;5006684;28;20209;-77
2020/12/08 13:43:49;;;;;;;31.20;17.75;;;4.90;61.20;;;;;;5014311;28;20238;-79
2020/12/08 13:46:20;;;;;;;32.50;19.17;;;4.90;60.70;;;;;;5017495;28;20291;-78
2020/12/08 13:48:47;;;;;;;29.70;18.45;;;4.80;61.00;;;;;;5016112;28;20194;-79
2020/12/08 13:51:15;;;;;;;29.70;17.60;;;4.80;61.50;;;;;;5018030;28;20243;-78
2020/12/08 13:53:41;;;;;;;29.52;17.67;;;4.70;61.70;;;;;;5014551;28;20703;-79
2020/12/08 13:56:08;;;;;;;30.38;17.80;;;4.70;62.00;;;;;;5003665;28;20209;-78
2020/12/08 13:58:35;;;;;;;31.80;18.55;;;4.70;62.10;;;;;;5011369;28;20193;-78